KFME/FME METAR and TAF weather

Enter ICAO airport designator
Station Type Date Time Source
KFME METAR 2019/10/15 04:03 UTC NOAA

KFME 150403Z AUTO 00000KT 10SM CLR 08/06 A3010 RMK AO1


Station Type Date Time Source
KFME Decoded METAR 2019/10/15 04:03 UTC NOAA

Fort Meade / Tipton, MD, United States (KFME) 39-05N 076-46W
Oct 15, 2019 - 12:03 AM EDT / 2019.10.15 0403 UTC
Wind: Calm:0
Visibility: 10 mile(s):0
Sky conditions: clear
Temperature: 46 F (8 C)
Dew Point: 42 F (6 C)
Relative Humidity: 87%
Pressure (altimeter): 30.1 in. Hg (1019 hPa)
ob: KFME 150403Z AUTO 00000KT 10SM CLR 08/06 A3010 RMK AO1
cycle: 4

Station Type Date Time Source
KFME TAF UTC NOAA

Error!

Example: see airport list